createdAt,value
2022-08-04T00:01:44.082Z,2.58
2022-08-04T00:04:28.148Z,2.10
2022-08-04T00:07:10.237Z,1.73
2022-08-04T00:09:57.082Z,2.15
2022-08-04T00:12:31.464Z,2.20
2022-08-04T00:15:04.166Z,2.10
2022-08-04T00:17:41.321Z,2.20
2022-08-04T00:20:18.677Z,2.30
2022-08-04T00:22:49.468Z,2.67
2022-08-04T00:25:20.197Z,2.42
2022-08-04T00:27:50.512Z,2.55
2022-08-04T00:30:22.811Z,2.47
2022-08-04T00:32:53.607Z,2.60
2022-08-04T00:35:24.487Z,2.47
2022-08-04T00:37:55.903Z,2.53
2022-08-04T00:40:31.407Z,2.60
2022-08-04T00:43:20.794Z,2.80
2022-08-04T00:46:18.029Z,2.70
2022-08-04T00:48:59.820Z,2.50
2022-08-04T00:51:43.772Z,2.80
2022-08-04T00:54:35.983Z,2.30
2022-08-04T00:57:45.653Z,2.40
2022-08-04T01:00:16.728Z,2.47
2022-08-04T01:03:00.113Z,2.30
2022-08-04T01:05:48.872Z,2.70
2022-08-04T01:08:28.214Z,2.30
2022-08-04T01:11:01.500Z,2.75
2022-08-04T01:14:03.323Z,2.20
2022-08-04T01:16:33.163Z,2.85
2022-08-04T01:19:12.588Z,2.60
2022-08-04T01:22:19.940Z,2.50
2022-08-04T01:25:21.464Z,2.60
2022-08-04T01:28:12.019Z,2.28
2022-08-04T01:30:46.439Z,2.80
2022-08-04T01:33:18.865Z,2.58
2022-08-04T01:35:58.633Z,2.60
2022-08-04T01:38:37.800Z,2.85
2022-08-04T01:41:15.937Z,3.08
2022-08-04T01:43:47.365Z,2.70
2022-08-04T01:46:18.920Z,2.87
2022-08-04T01:48:54.748Z,2.85
2022-08-04T01:51:26.794Z,2.70
2022-08-04T01:53:57.359Z,2.85
2022-08-04T01:56:30.037Z,2.72
2022-08-04T01:59:01.378Z,3.00
2022-08-04T02:01:36.643Z,3.10
2022-08-04T02:04:20.425Z,2.92
2022-08-04T02:07:18.581Z,2.70
2022-08-04T02:09:55.392Z,2.87
2022-08-04T02:12:28.415Z,2.50
2022-08-04T02:15:24.404Z,2.55
2022-08-04T02:18:26.051Z,2.62
2022-08-04T02:21:05.380Z,2.50
2022-08-04T02:23:41.604Z,2.72
2022-08-04T02:26:22.767Z,2.72
2022-08-04T02:29:12.564Z,2.95
2022-08-04T02:31:45.641Z,2.65
2022-08-04T02:34:45.127Z,2.83
2022-08-04T02:37:22.280Z,2.75
2022-08-04T02:39:54.976Z,2.45
2022-08-04T02:42:29.450Z,3.17
2022-08-04T02:45:01.303Z,2.75
2022-08-04T02:48:08.083Z,2.70
2022-08-04T02:50:29.173Z,3.50
2022-08-04T02:53:03.187Z,2.80
2022-08-04T02:55:34.648Z,2.53
2022-08-04T02:58:13.517Z,2.65
2022-08-04T03:00:45.413Z,2.37
2022-08-04T03:03:25.370Z,2.62
2022-08-04T03:06:10.367Z,2.67
2022-08-04T03:08:47.178Z,2.80
2022-08-04T03:11:22.516Z,3.05
2022-08-04T03:14:06.104Z,2.72
2022-08-04T03:17:16.552Z,2.80
2022-08-04T03:20:02.282Z,2.70
2022-08-04T03:23:13.169Z,2.75
2022-08-04T03:26:14.502Z,2.37
2022-08-04T03:29:02.535Z,2.70
2022-08-04T03:31:36.214Z,3.10
2022-08-04T03:34:27.299Z,3.28
2022-08-04T03:37:20.781Z,3.00
2022-08-04T03:40:09.774Z,2.92
2022-08-04T03:42:58.941Z,2.85
2022-08-04T03:45:51.259Z,3.12
2022-08-04T03:48:59.291Z,3.65
2022-08-04T03:52:01.739Z,3.53
2022-08-04T03:54:44.908Z,3.95
2022-08-04T03:57:43.049Z,3.42
2022-08-04T04:00:18.492Z,3.35
2022-08-04T04:02:58.834Z,3.42
2022-08-04T04:06:00.035Z,3.10
2022-08-04T04:08:53.686Z,3.05
2022-08-04T04:12:00.258Z,3.47
2022-08-04T04:14:44.427Z,3.85
2022-08-04T04:17:19.414Z,3.60
2022-08-04T04:20:08.787Z,3.50
2022-08-04T04:22:55.774Z,2.80
2022-08-04T04:25:42.919Z,2.83
2022-08-04T04:28:46.123Z,3.20
2022-08-04T04:31:48.669Z,2.97
2022-08-04T04:34:23.994Z,3.03
2022-08-04T04:37:28.143Z,3.22
2022-08-04T04:39:59.991Z,3.00
2022-08-04T04:43:01.669Z,3.30
2022-08-04T04:45:32.006Z,3.53
2022-08-04T04:48:12.904Z,4.95
2022-08-04T04:51:05.370Z,3.72
2022-08-04T04:54:00.087Z,3.50
2022-08-04T04:56:41.506Z,3.65
2022-08-04T04:59:16.024Z,3.85
2022-08-04T05:01:47.433Z,3.47
2022-08-04T05:04:48.883Z,3.25
2022-08-04T05:07:53.179Z,3.33
2022-08-04T05:10:28.311Z,4.35
2022-08-04T05:14:38.057Z,4.15
2022-08-04T05:16:24.301Z,2.92
2022-08-04T05:19:04.236Z,2.70
2022-08-04T05:21:35.436Z,3.35
2022-08-04T05:24:07.422Z,3.80
2022-08-04T05:26:40.045Z,2.90
2022-08-04T05:29:10.216Z,3.12
2022-08-04T05:31:44.290Z,2.55
2022-08-04T05:34:21.177Z,2.80
2022-08-04T05:36:59.600Z,2.70
2022-08-04T05:39:34.345Z,2.40
2022-08-04T05:42:05.072Z,2.90
2022-08-04T05:44:39.435Z,2.55
2022-08-04T05:47:09.076Z,3.03
2022-08-04T05:49:38.888Z,2.45
2022-08-04T05:52:10.173Z,2.97
2022-08-04T05:54:39.295Z,2.42
2022-08-04T05:57:09.091Z,2.70
2022-08-04T05:59:46.604Z,3.00
2022-08-04T06:02:16.957Z,2.37
2022-08-04T06:04:49.190Z,3.40
2022-08-04T06:07:18.770Z,4.37
2022-08-04T06:09:50.600Z,3.03
2022-08-04T06:12:22.303Z,2.62
2022-08-04T06:14:54.963Z,2.45
2022-08-04T06:18:33.594Z,2.42
2022-08-04T06:20:23.342Z,3.12
2022-08-04T06:22:54.661Z,2.70
2022-08-04T06:25:25.795Z,2.30
2022-08-04T06:27:55.303Z,2.67
2022-08-04T06:30:27.005Z,2.20
2022-08-04T06:33:03.622Z,2.40
2022-08-04T06:35:35.106Z,2.60
2022-08-04T06:38:03.753Z,2.28
2022-08-04T06:40:34.397Z,4.32
2022-08-04T06:43:06.265Z,2.40
2022-08-04T06:45:37.682Z,2.55
2022-08-04T06:48:07.219Z,4.47
2022-08-04T06:51:24.917Z,2.22
2022-08-04T06:55:54.930Z,2.40
2022-08-04T06:58:23.916Z,2.40
2022-08-04T07:00:55.751Z,3.75
2022-08-04T07:03:25.024Z,2.50
2022-08-04T07:05:53.488Z,3.37
2022-08-04T07:08:24.599Z,2.35
2022-08-04T07:10:54.373Z,2.70
2022-08-04T07:13:22.918Z,2.87
2022-08-04T07:15:51.120Z,2.10
2022-08-04T07:18:19.552Z,2.37
2022-08-04T07:20:48.782Z,2.00
2022-08-04T07:23:21.591Z,2.05
2022-08-04T07:25:59.911Z,2.40
2022-08-04T07:28:42.268Z,2.45
2022-08-04T07:31:33.528Z,2.30
2022-08-04T07:34:16.575Z,2.00
2022-08-04T07:36:55.596Z,2.10
2022-08-04T07:39:30.149Z,2.03
2022-08-04T07:42:02.256Z,2.00
2022-08-04T07:44:32.462Z,2.08
2022-08-04T07:47:02.196Z,2.23
2022-08-04T07:49:52.172Z,1.90
2022-08-04T07:52:18.763Z,2.05
2022-08-04T07:54:47.841Z,2.10
2022-08-04T07:57:39.756Z,1.95
2022-08-04T08:00:09.105Z,4.87
2022-08-04T08:02:39.671Z,3.17
2022-08-04T08:05:13.782Z,3.15
2022-08-04T08:07:50.496Z,3.35
2022-08-04T08:10:25.604Z,2.00
2022-08-04T08:12:53.755Z,2.37
2022-08-04T08:15:26.707Z,2.30
2022-08-04T08:17:58.664Z,2.10
2022-08-04T08:20:32.596Z,2.10
2022-08-04T08:23:02.221Z,2.10
2022-08-04T08:25:32.841Z,2.03
2022-08-04T08:28:04.993Z,2.63
2022-08-04T08:30:34.194Z,2.25
2022-08-04T08:33:06.206Z,2.10
2022-08-04T08:35:53.776Z,2.20
2022-08-04T08:38:41.344Z,1.80
2022-08-04T08:41:32.137Z,1.95
2022-08-04T08:44:19.128Z,2.20
2022-08-04T08:47:07.677Z,2.10
2022-08-04T08:50:00.374Z,2.60
2022-08-04T08:53:01.333Z,2.20
2022-08-04T08:55:33.812Z,2.35
2022-08-04T08:58:40.939Z,2.70
2022-08-04T09:01:56.928Z,2.03
2022-08-04T09:04:46.732Z,2.00
2022-08-04T09:07:45.116Z,2.33
2022-08-04T09:10:40.367Z,2.08
2022-08-04T09:13:23.707Z,2.30
2022-08-04T09:16:18.339Z,2.40
2022-08-04T09:19:37.626Z,2.17
2022-08-04T09:22:21.043Z,1.90
2022-08-04T09:25:25.442Z,2.33
2022-08-04T09:27:56.326Z,2.20
2022-08-04T09:33:22.513Z,2.00
2022-08-04T09:36:13.870Z,2.33
2022-08-04T09:39:22.637Z,2.10
2022-08-04T09:42:09.985Z,3.90
2022-08-04T09:45:06.488Z,2.30
2022-08-04T09:47:53.613Z,2.28
2022-08-04T09:50:49.775Z,2.05
2022-08-04T09:53:42.734Z,1.80
2022-08-04T09:56:23.537Z,1.80
2022-08-04T09:59:21.110Z,2.20
2022-08-04T10:01:59.997Z,1.98
2022-08-04T10:04:31.046Z,1.92
2022-08-04T10:07:37.127Z,1.80
2022-08-04T10:10:08.641Z,2.15
2022-08-04T10:13:07.496Z,1.58
2022-08-04T10:16:01.380Z,2.12
2022-08-04T10:18:59.524Z,2.50
2022-08-04T10:22:27.000Z,2.08
2022-08-04T10:24:56.537Z,2.50
2022-08-04T10:27:33.377Z,1.92
2022-08-04T10:30:12.130Z,2.08
2022-08-04T10:33:02.523Z,2.20
2022-08-04T10:35:36.059Z,2.00
2022-08-04T10:38:07.354Z,1.73
2022-08-04T10:40:44.889Z,2.20
2022-08-04T10:43:20.788Z,2.08
2022-08-04T10:45:58.833Z,2.58
2022-08-04T10:48:42.268Z,2.53
2022-08-04T10:51:58.293Z,2.37
2022-08-04T10:54:48.350Z,2.30
2022-08-04T10:57:25.721Z,2.28
2022-08-04T11:00:03.607Z,2.62
2022-08-04T11:02:47.311Z,2.17
2022-08-04T11:05:25.760Z,2.78
2022-08-04T11:08:00.238Z,2.58
2022-08-04T11:10:33.975Z,2.08
2022-08-04T11:13:05.558Z,2.28
2022-08-04T11:15:49.103Z,2.33
2022-08-04T11:18:26.228Z,2.40
2022-08-04T11:21:09.684Z,3.33
2022-08-04T11:23:41.092Z,2.50
2022-08-04T11:26:24.927Z,2.50
2022-08-04T11:29:03.857Z,2.47
2022-08-04T11:31:35.714Z,2.20
2022-08-04T11:34:32.879Z,2.37
2022-08-04T11:37:18.341Z,2.33
2022-08-04T11:39:52.146Z,2.47
2022-08-04T11:42:29.426Z,2.22
2022-08-04T11:45:04.621Z,2.30
2022-08-04T11:47:40.331Z,3.15
2022-08-04T11:50:35.118Z,2.65
2022-08-04T11:53:04.362Z,2.90
2022-08-04T11:55:33.219Z,6.15
2022-08-04T11:58:22.066Z,4.50
2022-08-04T12:00:55.997Z,2.90
2022-08-04T12:03:39.141Z,2.47
2022-08-04T12:06:22.306Z,2.50
2022-08-04T12:09:13.150Z,3.00
2022-08-04T12:12:01.642Z,2.55
2022-08-04T12:14:44.866Z,3.28
2022-08-04T12:17:16.458Z,3.00
2022-08-04T12:20:04.278Z,3.35
2022-08-04T12:22:48.843Z,2.70
2022-08-04T12:25:31.001Z,2.80
2022-08-04T12:28:26.443Z,2.37
2022-08-04T12:31:19.796Z,2.90
2022-08-04T12:34:09.860Z,4.40
2022-08-04T12:36:45.177Z,2.90
2022-08-04T12:39:20.658Z,2.60
2022-08-04T12:41:51.938Z,3.70
2022-08-04T12:44:36.156Z,2.85
2022-08-04T12:47:26.835Z,2.75
2022-08-04T12:50:03.967Z,2.60
2022-08-04T12:55:33.947Z,2.50
2022-08-04T12:58:04.694Z,4.53
2022-08-04T13:00:41.207Z,2.30
2022-08-04T13:03:14.284Z,2.80
2022-08-04T13:05:43.062Z,3.10
2022-08-04T13:08:12.110Z,2.65
2022-08-04T13:10:46.522Z,3.10
2022-08-04T13:13:28.208Z,2.78
2022-08-04T13:16:03.815Z,2.92
2022-08-04T13:18:35.646Z,2.60
2022-08-04T13:21:20.333Z,2.80
2022-08-04T13:24:19.218Z,2.53
2022-08-04T13:27:05.201Z,2.62
2022-08-04T13:29:59.371Z,3.80
2022-08-04T13:32:31.620Z,2.65
2022-08-04T13:35:01.926Z,2.28
2022-08-04T13:37:36.499Z,2.70
2022-08-04T13:40:08.157Z,2.87
2022-08-04T13:42:36.816Z,2.87
2022-08-04T13:45:06.961Z,2.55
2022-08-04T13:47:38.291Z,2.60
2022-08-04T13:50:20.804Z,2.53
2022-08-04T13:52:53.078Z,2.80
2022-08-04T13:55:25.359Z,2.72
2022-08-04T13:57:59.961Z,3.70
2022-08-04T14:00:48.385Z,2.53
2022-08-04T14:03:24.926Z,3.25
2022-08-04T14:06:21.533Z,3.17
2022-08-04T14:09:00.891Z,2.53
2022-08-04T14:12:10.198Z,3.03
2022-08-04T14:14:30.309Z,2.60
2022-08-04T14:17:18.074Z,2.83
2022-08-04T14:19:49.944Z,2.80
2022-08-04T14:22:30.028Z,2.50
2022-08-04T14:27:51.434Z,2.55
2022-08-04T14:30:27.727Z,2.30
2022-08-04T14:34:01.505Z,2.62
2022-08-04T14:36:01.687Z,2.70
2022-08-04T14:38:58.494Z,2.50
2022-08-04T14:41:34.514Z,2.42
2022-08-04T14:44:03.931Z,2.58
2022-08-04T14:46:52.948Z,2.80
2022-08-04T14:49:21.866Z,2.58
2022-08-04T14:51:59.182Z,2.40
2022-08-04T14:54:28.715Z,2.50
2022-08-04T14:57:02.628Z,2.67
2022-08-04T15:00:01.589Z,2.78
2022-08-04T15:02:32.534Z,2.45
2022-08-04T15:05:59.877Z,2.42
2022-08-04T15:07:50.286Z,2.22
2022-08-04T15:10:20.007Z,2.40
2022-08-04T15:12:48.131Z,2.55
2022-08-04T15:15:35.951Z,3.03
2022-08-04T15:18:04.179Z,2.60
2022-08-04T15:20:32.293Z,2.28
2022-08-04T15:23:05.052Z,2.33
2022-08-04T15:25:39.592Z,2.30
2022-08-04T15:28:14.355Z,2.80
2022-08-04T15:30:44.513Z,2.58
2022-08-04T15:33:21.991Z,2.33
2022-08-04T15:36:13.202Z,2.55
2022-08-04T15:41:55.553Z,2.40
2022-08-04T15:44:51.614Z,2.70
2022-08-04T15:47:20.896Z,2.58
2022-08-04T15:50:04.082Z,2.25
2022-08-04T15:53:12.401Z,2.40
2022-08-04T15:55:44.136Z,2.05
2022-08-04T15:58:14.438Z,2.60
2022-08-04T16:00:49.328Z,2.80
2022-08-04T16:04:00.189Z,2.42
2022-08-04T16:06:20.890Z,2.35
2022-08-04T16:08:52.630Z,2.10
2022-08-04T16:11:31.584Z,2.70
2022-08-04T16:14:04.134Z,2.78
2022-08-04T16:16:38.696Z,2.50
2022-08-04T16:19:13.792Z,2.55
2022-08-04T16:22:01.082Z,2.50
2022-08-04T16:24:37.674Z,2.20
2022-08-04T16:27:09.691Z,2.30
2022-08-04T16:29:42.919Z,2.53
2022-08-04T16:32:13.317Z,2.20
2022-08-04T16:35:05.086Z,2.35
2022-08-04T16:37:43.655Z,2.60
2022-08-04T16:40:33.695Z,2.30
2022-08-04T16:43:07.414Z,2.70
2022-08-04T16:45:41.214Z,2.45
2022-08-04T16:48:10.603Z,2.70
2022-08-04T16:51:06.804Z,2.45
2022-08-04T16:53:52.729Z,2.47
2022-08-04T16:56:33.463Z,2.45
2022-08-04T16:59:07.480Z,2.47
2022-08-04T17:01:37.220Z,2.80
2022-08-04T17:04:05.674Z,2.80
2022-08-04T17:06:35.153Z,2.72
2022-08-04T17:09:14.503Z,2.33
2022-08-04T17:11:44.070Z,2.58
2022-08-04T17:14:13.069Z,3.08
2022-08-04T17:16:43.032Z,2.75
2022-08-04T17:19:24.469Z,2.30
2022-08-04T17:22:02.851Z,2.50
2022-08-04T17:24:38.442Z,2.47
2022-08-04T17:28:10.379Z,2.30
2022-08-04T17:29:56.751Z,2.40
2022-08-04T17:32:25.535Z,2.50
2022-08-04T17:34:57.506Z,2.80
2022-08-04T17:37:40.639Z,2.42
2022-08-04T17:40:18.402Z,2.20
2022-08-04T17:44:01.564Z,3.00
2022-08-04T17:46:28.880Z,2.60
2022-08-04T17:49:07.891Z,2.60
2022-08-04T17:52:05.946Z,2.37
2022-08-04T17:54:36.559Z,2.60
2022-08-04T17:57:21.885Z,3.20
2022-08-04T17:59:57.959Z,2.58
2022-08-04T18:02:33.839Z,2.70
2022-08-04T18:05:06.908Z,2.53
2022-08-04T18:08:40.082Z,3.25
2022-08-04T18:10:51.606Z,2.62
2022-08-04T18:13:28.140Z,3.00
2022-08-04T18:16:14.299Z,2.75
2022-08-04T18:19:10.583Z,2.75
2022-08-04T18:21:46.126Z,2.70
2022-08-04T18:24:35.113Z,2.87
2022-08-04T18:27:17.759Z,2.50
2022-08-04T18:30:14.767Z,2.40
2022-08-04T18:32:36.475Z,2.90
2022-08-04T18:35:07.513Z,2.65
2022-08-04T18:38:06.180Z,2.60
2022-08-04T18:40:36.761Z,2.55
2022-08-04T18:43:14.579Z,2.25
2022-08-04T18:45:50.907Z,3.15
2022-08-04T18:48:20.731Z,2.87
2022-08-04T18:51:09.249Z,2.83
2022-08-04T18:53:38.975Z,3.00
2022-08-04T18:56:27.313Z,3.17
2022-08-04T18:59:03.682Z,3.03
2022-08-04T19:02:13.455Z,3.00
2022-08-04T19:04:32.331Z,2.65
2022-08-04T19:07:29.185Z,3.87
2022-08-04T19:09:54.002Z,2.95
2022-08-04T19:12:28.630Z,3.20
2022-08-04T19:15:08.765Z,2.87
2022-08-04T19:17:53.456Z,2.60
2022-08-04T19:20:30.715Z,2.90
2022-08-04T19:24:28.420Z,3.10
2022-08-04T19:26:03.872Z,3.22
2022-08-04T19:28:36.033Z,2.97
2022-08-04T19:31:09.631Z,3.10
2022-08-04T19:33:58.494Z,2.72
2022-08-04T19:36:30.922Z,2.90
2022-08-04T19:39:02.029Z,3.67
2022-08-04T19:41:34.226Z,3.28
2022-08-04T19:46:53.946Z,3.45
2022-08-04T19:50:05.088Z,3.28
2022-08-04T19:52:10.758Z,3.60
2022-08-04T19:54:40.755Z,3.20
2022-08-04T19:57:09.193Z,3.40
2022-08-04T19:59:48.347Z,4.10
2022-08-04T20:02:16.877Z,3.50
2022-08-04T20:04:45.409Z,3.47
2022-08-04T20:07:16.168Z,3.95
2022-08-04T20:09:53.733Z,3.37
2022-08-04T20:12:22.441Z,3.47
2022-08-04T20:14:53.436Z,3.92
2022-08-04T20:18:08.144Z,3.30
2022-08-04T20:20:14.868Z,4.28
2022-08-04T20:25:36.669Z,3.87
2022-08-04T20:28:07.720Z,3.20
2022-08-04T20:30:39.012Z,3.65
2022-08-04T20:33:08.624Z,3.57
2022-08-04T20:36:00.651Z,4.07
2022-08-04T20:38:33.568Z,3.53
2022-08-04T20:41:05.225Z,3.75
2022-08-04T20:43:34.612Z,4.37
2022-08-04T20:46:03.421Z,3.33
2022-08-04T20:48:46.699Z,3.62
2022-08-04T20:51:31.449Z,3.55
2022-08-04T20:54:16.925Z,3.50
2022-08-04T20:56:53.436Z,3.40
2022-08-04T20:59:22.262Z,3.75
2022-08-04T21:01:53.851Z,4.03
2022-08-04T21:04:31.537Z,3.58
2022-08-04T21:07:01.223Z,3.33
2022-08-04T21:09:38.352Z,3.78
2022-08-04T21:12:26.796Z,3.33
2022-08-04T21:15:00.145Z,4.18
2022-08-04T21:17:57.019Z,3.60
2022-08-04T21:20:27.197Z,3.40
2022-08-04T21:22:59.444Z,3.53
2022-08-04T21:25:30.386Z,3.05
2022-08-04T21:28:04.045Z,3.55
2022-08-04T21:33:22.767Z,3.45
2022-08-04T21:35:54.387Z,3.03
2022-08-04T21:38:28.123Z,3.83
2022-08-04T21:41:01.479Z,3.70
2022-08-04T21:43:42.464Z,3.17
2022-08-04T21:46:15.502Z,3.40
2022-08-04T21:48:48.740Z,3.83
2022-08-04T21:51:59.871Z,3.60
2022-08-04T21:54:17.120Z,3.87
2022-08-04T21:56:51.025Z,4.18
2022-08-04T21:59:23.701Z,3.90
2022-08-04T22:02:01.925Z,3.85
2022-08-04T22:04:31.235Z,3.53
2022-08-04T22:07:02.930Z,3.97
2022-08-04T22:09:38.695Z,3.37
2022-08-04T22:12:12.401Z,4.85
2022-08-04T22:14:50.327Z,3.70
2022-08-04T22:17:28.418Z,3.60
2022-08-04T22:20:07.366Z,3.50
2022-08-04T22:23:03.384Z,3.92
2022-08-04T22:25:39.922Z,3.95
2022-08-04T22:28:14.747Z,4.47
2022-08-04T22:30:52.007Z,3.58
2022-08-04T22:33:22.735Z,3.75
2022-08-04T22:35:53.598Z,4.15
2022-08-04T22:38:42.058Z,3.53
2022-08-04T22:43:58.133Z,3.85
2022-08-04T22:46:30.893Z,4.00
2022-08-04T22:48:59.437Z,3.80
2022-08-04T22:51:30.068Z,4.12
2022-08-04T22:54:12.430Z,3.60
2022-08-04T22:56:45.752Z,5.00
2022-08-04T22:59:15.532Z,3.70
2022-08-04T23:01:58.892Z,4.10
2022-08-04T23:04:34.981Z,3.72
2022-08-04T23:07:09.037Z,3.90
2022-08-04T23:09:49.960Z,3.80
2022-08-04T23:12:26.461Z,3.75
2022-08-04T23:14:58.098Z,3.67
2022-08-04T23:17:47.623Z,4.43
2022-08-04T23:20:23.153Z,4.95
2022-08-04T23:22:55.924Z,3.90
2022-08-04T23:25:32.669Z,3.87
2022-08-04T23:28:05.982Z,3.93
2022-08-04T23:30:35.690Z,3.60
2022-08-04T23:33:07.831Z,4.68
2022-08-04T23:35:42.745Z,4.72
2022-08-04T23:38:31.666Z,4.30
2022-08-04T23:41:13.506Z,4.10
2022-08-04T23:43:54.973Z,4.43
2022-08-04T23:46:25.510Z,4.00
2022-08-04T23:49:01.141Z,3.97
2022-08-04T23:51:30.934Z,4.00
2022-08-04T23:54:04.996Z,3.92
2022-08-04T23:56:35.419Z,4.30
2022-08-04T23:59:23.167Z,3.92
